Map

Track Data

SID SEASON NUMBER BASIN SUBBASIN NAME ISO_TIME NATURE LAT LON WMO_WIND WMO_PRES WMO_AGENCY TRACK_TYPE DIST2LAND LANDFALL IFLAG USA_AGENCY USA_ATCF_ID USA_LAT USA_LON USA_RECORD USA_STATUS USA_WIND USA_PRES USA_SSHS USA_R34_NE USA_R34_SE USA_R34_SW USA_R34_NW USA_R50_NE USA_R50_SE USA_R50_SW USA_R50_NW USA_R64_NE USA_R64_SE USA_R64_SW USA_R64_NW USA_POCI USA_ROCI USA_RMW USA_EYE TOKYO_LAT TOKYO_LON TOKYO_GRADE TOKYO_WIND TOKYO_PRES TOKYO_R50_DIR TOKYO_R50_LONG TOKYO_R50_SHORT TOKYO_R30_DIR TOKYO_R30_LONG TOKYO_R30_SHORT TOKYO_LAND CMA_LAT CMA_LON CMA_CAT CMA_WIND CMA_PRES HKO_LAT HKO_LON HKO_CAT HKO_WIND HKO_PRES NEWDELHI_LAT NEWDELHI_LON NEWDELHI_GRADE NEWDELHI_WIND NEWDELHI_PRES NEWDELHI_CI NEWDELHI_DP NEWDELHI_POCI REUNION_LAT REUNION_LON REUNION_TYPE REUNION_WIND REUNION_PRES REUNION_TNUM REUNION_CI REUNION_RMW REUNION_R34_NE REUNION_R34_SE REUNION_R34_SW REUNION_R34_NW REUNION_R50_NE REUNION_R50_SE REUNION_R50_SW REUNION_R50_NW REUNION_R64_NE REUNION_R64_SE REUNION_R64_SW REUNION_R64_NW BOM_LAT BOM_LON BOM_TYPE BOM_WIND BOM_PRES BOM_TNUM BOM_CI BOM_RMW BOM_R34_NE BOM_R34_SE BOM_R34_SW BOM_R34_NW BOM_R50_NE BOM_R50_SE BOM_R50_SW BOM_R50_NW BOM_R64_NE BOM_R64_SE BOM_R64_SW BOM_R64_NW BOM_ROCI BOM_POCI BOM_EYE BOM_POS_METHOD BOM_PRES_METHOD NADI_LAT NADI_LON NADI_CAT NADI_WIND NADI_PRES WELLINGTON_LAT WELLINGTON_LON WELLINGTON_WIND WELLINGTON_PRES DS824_LAT DS824_LON DS824_STAGE DS824_WIND DS824_PRES TD9636_LAT TD9636_LON TD9636_STAGE TD9636_WIND TD9636_PRES TD9635_LAT TD9635_LON TD9635_WIND TD9635_PRES TD9635_ROCI NEUMANN_LAT NEUMANN_LON NEUMANN_CLASS NEUMANN_WIND NEUMANN_PRES MLC_LAT MLC_LON MLC_CLASS MLC_WIND MLC_PRES USA_GUST BOM_GUST BOM_GUST_PER REUNION_GUST REUNION_GUST_PER USA_SEAHGT USA_SEARAD_NE USA_SEARAD_SE USA_SEARAD_SW USA_SEARAD_NW STORM_SPEED STORM_DIR
1912224N18134 1912 35 WP MM NOT_NAMED 1912-08-10 16:00:00 NR 17.9000 133.600 main 1078 1078 __________O___ -1 17.9000 133.600 7 2 0
1912224N18134 1912 35 WP MM NOT_NAMED 1912-08-10 18:00:00 NR 17.9691 133.622 main 1085 1085 __________P___ -1 17.9691 133.622 7 2 19
1912224N18134 1912 35 WP MM NOT_NAMED 1912-08-10 21:00:00 NR 18.0905 133.671 main 1099 1099 __________P___ -1 18.0905 133.671 7 3 25
1912224N18134 1912 35 WP MM NOT_NAMED 1912-08-11 00:00:00 NR 18.2579 133.764 main 1118 1118 __________P___ -1 18.2579 133.764 7 5 30
1912224N18134 1912 35 WP MM NOT_NAMED 1912-08-11 03:00:00 NR 18.4987 133.926 main 1137 1137 __________P___ -1 18.4987 133.926 7 6 33
1912224N18134 1912 35 WP MM NOT_NAMED 1912-08-11 04:00:00 NR 18.6000 134.000 main 1151 1151 __________O___ -1 18.6000 134.000 7 8 36
1912224N18134 1912 35 WP MM NOT_NAMED 1912-08-11 06:00:00 NR 18.8367 134.182 main 1180 1185 __________P___ -1 18.8367 134.182 7 10 37
1912224N18134 1912 35 WP MM NOT_NAMED 1912-08-11 09:00:00 NR 19.2550 134.531 main 1234 1243 __________P___ -1 19.2550 134.531 7 11 40
1912224N18134 1912 35 WP MM NOT_NAMED 1912-08-11 12:00:00 NR 19.7104 134.954 main 1301 1294 __________P___ -1 19.7104 134.954 7 12 43
1912224N18134 1912 35 WP MM NOT_NAMED 1912-08-11 15:00:00 NR 20.1593 135.432 main 1294 1287 __________P___ -1 20.1593 135.432 7 13 46
1912224N18134 1912 35 WP MM NOT_NAMED 1912-08-11 16:00:00 NR 20.3000 135.600 main 1291 1278 __________O___ -1 20.3000 135.600 7 12 51
1912224N18134 1912 35 WP MM NOT_NAMED 1912-08-11 18:00:00 NR 20.5448 135.933 main 1282 1263 __________P___ -1 20.5448 135.933 7 12 54
1912224N18134 1912 35 WP MM NOT_NAMED 1912-08-11 21:00:00 NR 20.8868 136.469 main 1267 1256 __________P___ -1 20.8868 136.469 7 12 57
1912224N18134 1912 35 WP MM NOT_NAMED 1912-08-12 00:00:00 NR 21.2042 137.035 main 1261 1256 __________P___ -1 21.2042 137.035 7 12 60
1912224N18134 1912 35 WP MM NOT_NAMED 1912-08-12 03:00:00 NR 21.5032 137.609 main 1263 1259 __________P___ -1 21.5032 137.609 7 12 61
1912224N18134 1912 35 WP MM NOT_NAMED 1912-08-12 04:00:00 NR 21.6000 137.800 main 1265 1260 __________O___ -1 21.6000 137.800 7 12 60
1912224N18134 1912 35 WP MM NOT_NAMED 1912-08-12 06:00:00 NR 21.7995 138.165 main 1266 1262 __________P___ -1 21.7995 138.165 7 12 60
1912224N18134 1912 35 WP MM NOT_NAMED 1912-08-12 09:00:00 NR 22.0866 138.711 main 1265 1264 __________P___ -1 22.0866 138.711 7 12 61
1912224N18134 1912 35 WP MM NOT_NAMED 1912-08-12 12:00:00 NR 22.3592 139.260 main 1272 1264 __________P___ -1 22.3592 139.260 7 12 63
1912224N18134 1912 35 WP MM NOT_NAMED 1912-08-12 15:00:00 NR 22.6172 139.814 main 1267 1260 __________P___ -1 22.6172 139.814 7 11 63
1912224N18134 1912 35 WP MM NOT_NAMED 1912-08-12 16:00:00 NR 22.7000 140.000 main 1263 1255 __________O___ -1 22.7000 140.000 7 11 65
1912224N18134 1912 35 WP MM NOT_NAMED 1912-08-12 18:00:00 NR 22.8609 140.376 main 1255 1252 __________P___ -1 22.8609 140.376 7 11 66
1912224N18134 1912 35 WP MM NOT_NAMED 1912-08-12 21:00:00 NR 23.0920 140.947 main 1252 1250 __________P___ -1 23.0920 140.947 7 12 67
1912224N18134 1912 35 WP MM NOT_NAMED 1912-08-13 00:00:00 NR 23.3137 141.524 main 1257 1251 __________P___ -1 23.3137 141.524 7 12 68
1912224N18134 1912 35 WP MM NOT_NAMED 1912-08-13 03:00:00 NR 23.5291 142.105 main 1264 1259 __________P___ -1 23.5291 142.105 7 12 68
1912224N18134 1912 35 WP MM NOT_NAMED 1912-08-13 04:00:00 NR 23.6000 142.300 main 1263 __________O___ -1 23.6000 142.300 7 12 68

Digital Typhoon Data and Search

About IBTrACS Database

This database is a web-friendly format of International Best Track Archive for Climate Stewardship (IBTrACS), a global best track data archive curated by NOAA dating back to 1842.

Updated: 2021-12-08